Time;durP1;ratioP1;P1;durP2;ratioP2;P2;SDS_P1;SDS_P2;PMS_P1;PMS_P2;Temp;Humidity;BMP_temperature;BMP_pressure;BME280_temperature;BME280_humidity;BME280_pressure;Samples;Min_cycle;Max_cycle;Signal;HPM_P1;HPM_P2
2023/01/07 00:01:22;;;;;;;1.50;0.60;;;17.10;68.10;;;;;;6245431;23;19993;-71
2023/01/07 00:03:49;;;;;;;1.23;0.80;;;17.00;70.20;;;;;;6245111;23;20095;-71
2023/01/07 00:06:18;;;;;;;1.25;0.60;;;17.00;72.60;;;;;;6245844;23;19992;-70
2023/01/07 00:08:47;;;;;;;1.10;0.93;;;17.10;73.20;;;;;;6244874;23;19996;-71
2023/01/07 00:11:17;;;;;;;1.88;0.82;;;17.10;97.70;;;;;;6245170;23;20420;-71
2023/01/07 00:13:43;;;;;;;0.40;0.40;;;17.20;97.50;;;;;;6245376;23;19996;-71
2023/01/07 00:16:12;;;;;;;2.25;0.80;;;17.10;73.00;;;;;;6245737;23;20000;-71
2023/01/07 00:18:39;;;;;;;0.52;0.40;;;;;;;;;;6245764;23;19996;-71
2023/01/07 00:21:07;;;;;;;0.60;0.50;;;17.20;97.60;;;;;;6245729;23;20004;-71
2023/01/07 00:23:35;;;;;;;1.85;0.88;;;16.90;97.50;;;;;;6245647;23;19996;-71
2023/01/07 00:26:04;;;;;;;0.77;0.70;;;17.10;88.60;;;;;;6245614;23;20007;-71
2023/01/07 00:28:29;;;;;;;0.60;0.50;;;17.10;97.50;;;;;;6255438;23;20078;-71
2023/01/07 00:30:59;;;;;;;2.55;0.73;;;17.30;97.70;;;;;;6255413;23;20366;-71
2023/01/07 00:33:27;;;;;;;1.33;0.63;;;17.30;97.70;;;;;;6245179;23;19999;-71
2023/01/07 00:36:08;;;;;;;1.23;0.50;;;17.20;72.80;;;;;;6245468;23;20000;-71
2023/01/07 00:38:34;;;;;;;0.70;0.55;;;17.40;97.50;;;;;;6255302;23;19996;-71
2023/01/07 00:41:01;;;;;;;0.88;0.70;;;;;;;;;;6245850;23;19996;-70
2023/01/07 00:43:27;;;;;;;1.40;0.90;;;17.00;97.60;;;;;;6245088;23;20065;-71
2023/01/07 00:45:54;;;;;;;1.40;0.55;;;17.30;97.90;;;;;;6245051;23;20008;-71
2023/01/07 00:48:22;;;;;;;1.23;0.60;;;;;;;;;;6245389;23;20002;-70
2023/01/07 00:50:50;;;;;;;3.33;0.98;;;17.20;73.50;;;;;;6245444;23;20386;-71
2023/01/07 00:53:16;;;;;;;1.30;0.63;;;;;;;;;;6245528;23;19992;-71
2023/01/07 00:55:43;;;;;;;2.25;0.80;;;;;;;;;;6245348;23;20313;-71
2023/01/07 00:58:14;;;;;;;0.88;0.70;;;17.20;72.60;;;;;;6245028;23;19996;-71
2023/01/07 01:00:41;;;;;;;2.65;0.70;;;;;;;;;;6245546;23;20000;-71
2023/01/07 01:03:09;;;;;;;0.75;0.60;;;17.20;72.10;;;;;;6244749;23;20016;-71
2023/01/07 01:05:35;;;;;;;1.00;0.70;;;17.20;97.60;;;;;;6244800;23;20014;-71
2023/01/07 01:08:01;;;;;;;1.25;0.75;;;17.40;97.60;;;;;;6245305;23;20063;-70
2023/01/07 01:10:27;;;;;;;1.23;0.40;;;17.10;97.50;;;;;;6244768;23;20042;-71
2023/01/07 01:12:53;;;;;;;2.15;1.02;;;17.20;97.40;;;;;;6244967;23;20071;-71
2023/01/07 01:15:19;;;;;;;0.70;0.40;;;17.30;97.40;;;;;;6245172;23;20024;-71
2023/01/07 01:17:45;;;;;;;1.55;0.70;;;;;;;;;;6255079;23;20003;-71
2023/01/07 01:20:14;;;;;;;1.67;0.63;;;17.30;71.90;;;;;;6245237;23;20004;-71
2023/01/07 01:22:41;;;;;;;0.63;0.50;;;17.30;71.60;;;;;;6244631;23;19992;-71
2023/01/07 01:25:08;;;;;;;0.70;0.65;;;17.20;97.00;;;;;;6244620;23;20014;-71
2023/01/07 01:27:34;;;;;;;0.60;0.55;;;;;;;;;;6245055;23;20365;-71
2023/01/07 01:30:01;;;;;;;0.57;0.50;;;17.20;90.90;;;;;;6245173;23;20004;-71
2023/01/07 01:32:28;;;;;;;2.22;0.70;;;17.30;71.40;;;;;;6245151;23;20372;-71
2023/01/07 01:34:53;;;;;;;0.47;0.40;;;17.30;97.20;;;;;;6255006;23;20046;-71
2023/01/07 01:37:19;;;;;;;1.17;0.65;;;17.20;97.30;;;;;;6255053;23;20024;-71
2023/01/07 01:39:45;;;;;;;0.45;0.30;;;;;;;;;;6254909;23;20028;-71
2023/01/07 01:42:23;;;;;;;0.95;0.70;;;17.40;92.30;;;;;;6254931;23;20006;-71
2023/01/07 01:44:57;;;;;;;0.90;0.70;;;17.30;76.30;;;;;;6254844;23;20012;-71
2023/01/07 01:47:41;;;;;;;0.65;0.47;;;17.10;90.40;;;;;;6245035;23;20417;-71
2023/01/07 01:50:12;;;;;;;0.88;0.70;;;17.20;66.90;;;;;;6254977;23;20411;-71
2023/01/07 01:52:59;;;;;;;1.90;0.88;;;17.10;71.30;;;;;;6244524;23;20451;-71
2023/01/07 01:55:33;;;;;;;0.68;0.55;;;17.20;71.10;;;;;;6245112;23;20076;-71
2023/01/07 01:58:04;;;;;;;0.60;0.60;;;17.10;96.80;;;;;;6245002;23;20362;-71
2023/01/07 02:00:31;;;;;;;1.27;0.52;;;17.30;71.10;;;;;;6245006;23;20018;-71
2023/01/07 02:02:58;;;;;;;2.00;0.60;;;17.20;97.00;;;;;;6244300;23;20087;-71
2023/01/07 02:05:30;;;;;;;0.82;0.60;;;18.10;73.20;;;;;;6244477;23;20004;-71
2023/01/07 02:07:56;;;;;;;0.75;0.43;;;17.30;97.30;;;;;;6245050;23;20003;-71
2023/01/07 02:10:23;;;;;;;1.10;0.65;;;17.30;97.70;;;;;;6244744;23;20038;-71
2023/01/07 02:12:59;;;;;;;0.82;0.50;;;17.10;70.00;;;;;;6245999;23;20000;-71
2023/01/07 02:15:55;;;;;;;0.60;0.60;;;17.40;97.90;;;;;;6246460;23;20440;-71
2023/01/07 02:18:42;;;;;;;0.95;0.40;;;17.30;97.70;;;;;;6246924;23;20469;-71
2023/01/07 02:21:39;;;;;;;0.73;0.50;;;17.20;97.70;;;;;;6225218;23;20439;-71
2023/01/07 02:24:35;;;;;;;0.77;0.50;;;17.40;97.80;;;;;;6256688;23;20012;-71
2023/01/07 02:27:20;;;;;;;1.73;0.45;;;17.30;97.70;;;;;;6246883;23;20000;-71
2023/01/07 02:30:18;;;;;;;1.35;0.50;;;17.20;97.50;;;;;;6246344;23;19996;-71
2023/01/07 02:33:07;;;;;;;0.50;0.50;;;17.30;96.70;;;;;;6246424;23;20490;-71
2023/01/07 02:35:50;;;;;;;1.40;0.50;;;17.00;97.50;;;;;;6246754;23;20002;-71
2023/01/07 02:38:53;;;;;;;1.10;0.50;;;17.30;97.40;;;;;;6246768;23;20605;-71
2023/01/07 02:41:31;;;;;;;0.52;0.52;;;17.10;97.30;;;;;;6246661;23;20004;-71
2023/01/07 02:43:57;;;;;;;3.63;1.13;;;;;;;;;;6246550;23;20378;-71
2023/01/07 02:46:35;;;;;;;3.95;0.90;;;17.10;97.30;;;;;;6246700;23;19996;-71
2023/01/07 02:49:07;;;;;;;3.42;1.13;;;17.10;97.10;;;;;;6246762;23;19996;-71
2023/01/07 02:51:35;;;;;;;0.75;0.60;;;17.20;97.20;;;;;;6246640;23;20023;-71
2023/01/07 02:54:01;;;;;;;1.25;0.80;;;17.20;90.80;;;;;;6246533;23;20000;-70
2023/01/07 02:56:49;;;;;;;1.50;0.63;;;17.10;97.20;;;;;;6246605;23;19993;-71
2023/01/07 02:59:50;;;;;;;1.33;0.63;;;17.20;97.40;;;;;;6246591;23;20000;-71
2023/01/07 03:02:39;;;;;;;1.70;0.55;;;17.40;97.40;;;;;;6245715;23;20008;-70
2023/01/07 03:05:38;;;;;;;2.75;0.70;;;17.20;97.50;;;;;;6245962;23;20016;-71
2023/01/07 03:08:49;;;;;;;1.83;0.52;;;17.10;67.50;;;;;;6245943;23;20083;-71
2023/01/07 03:11:18;;;;;;;1.15;0.50;;;17.20;97.60;;;;;;6199473;23;20011;-71
2023/01/07 03:13:57;;;;;;;1.50;0.80;;;17.10;67.40;;;;;;6246436;23;20002;-70
2023/01/07 03:16:30;;;;;;;2.10;0.60;;;17.20;97.60;;;;;;6246024;23;20049;-71
2023/01/07 03:19:11;;;;;;;1.88;0.50;;;17.20;91.00;;;;;;6246285;23;20319;-70
2023/01/07 03:21:38;;;;;;;1.17;0.70;;;16.90;97.30;;;;;;6245957;23;20022;-70
2023/01/07 03:24:06;;;;;;;0.60;0.40;;;17.20;97.50;;;;;;6245077;23;20010;-70
2023/01/07 03:26:42;;;;;;;0.60;0.52;;;17.10;67.20;;;;;;6246229;23;20000;-70
2023/01/07 03:29:12;;;;;;;1.00;0.60;;;17.10;72.20;;;;;;6246212;23;20004;-70
2023/01/07 03:31:48;;;;;;;0.40;0.40;;;17.10;97.50;;;;;;6245939;23;19993;-70
2023/01/07 03:34:18;;;;;;;0.93;0.65;;;17.10;72.40;;;;;;6246183;23;20079;-70
2023/01/07 03:36:52;;;;;;;1.73;0.68;;;17.10;72.40;;;;;;6245911;23;19998;-70
2023/01/07 03:39:21;;;;;;;0.88;0.30;;;17.10;97.60;;;;;;6245773;23;19992;-70
2023/01/07 03:44:33;;;;;;;0.95;0.63;;;17.20;97.90;;;;;;6256012;23;20412;-70
2023/01/07 03:47:00;;;;;;;0.88;0.55;;;;;;;;;;6246030;23;20072;-70
2023/01/07 03:49:26;;;;;;;0.50;0.50;;;17.20;97.80;;;;;;6245591;23;20003;-71
2023/01/07 03:51:53;;;;;;;1.95;0.50;;;;;;;;;;6245974;23;20000;-70
2023/01/07 03:54:22;;;;;;;1.58;0.63;;;17.30;97.80;;;;;;6245534;23;20004;-70
2023/01/07 03:56:48;;;;;;;0.90;0.77;;;17.20;76.40;;;;;;6245971;23;20010;-70
2023/01/07 03:59:15;;;;;;;3.15;0.70;;;;;;;;;;6245814;23;19996;-70
2023/01/07 04:01:41;;;;;;;0.82;0.75;;;17.10;97.80;;;;;;6245218;23;20067;-70
2023/01/07 04:04:07;;;;;;;0.73;0.50;;;;;;;;;;6245425;23;20000;-70
2023/01/07 04:06:33;;;;;;;1.45;0.75;;;17.20;98.30;;;;;;6245270;23;20432;-70
2023/01/07 04:09:00;;;;;;;2.28;0.57;;;;;;;;;;6245252;23;20027;-70
2023/01/07 04:11:26;;;;;;;1.15;0.50;;;;;;;;;;6245187;23;20015;-70
2023/01/07 04:13:53;;;;;;;0.98;0.60;;;;;;;;;;6245424;23;19996;-70
2023/01/07 04:16:19;;;;;;;0.95;0.57;;;;;;;;;;6245606;23;20031;-70
2023/01/07 04:18:45;;;;;;;2.58;0.70;;;;;;;;;;6255638;23;20062;-70
2023/01/07 04:21:11;;;;;;;1.00;0.60;;;;;;;;;;6255467;23;19996;-69
2023/01/07 04:23:37;;;;;;;2.97;0.70;;;;;;;;;;6245638;23;19996;-70
2023/01/07 04:26:03;;;;;;;2.40;0.95;;;;;;;;;;6245631;23;20106;-70
2023/01/07 04:28:29;;;;;;;1.60;0.70;;;17.10;98.30;;;;;;6255508;23;19996;-70
2023/01/07 04:30:57;;;;;;;1.48;0.68;;;17.00;74.00;;;;;;6255425;23;20000;-70
2023/01/07 04:33:23;;;;;;;0.70;0.60;;;17.10;98.20;;;;;;6255445;23;20003;-70
2023/01/07 04:35:49;;;;;;;1.67;0.73;;;;;;;;;;6255252;23;20024;-70
2023/01/07 04:38:15;;;;;;;1.05;0.80;;;17.00;98.50;;;;;;6245384;23;20004;-70
2023/01/07 04:40:42;;;;;;;1.95;1.00;;;;;;;;;;6245191;23;20001;-70
2023/01/07 04:43:08;;;;;;;2.13;0.80;;;;;;;;;;6245469;23;20370;-70
2023/01/07 04:45:35;;;;;;;1.05;0.68;;;;;;;;;;6245287;23;20012;-70
2023/01/07 04:48:01;;;;;;;0.90;0.80;;;;;;;;;;6245009;23;20003;-70
2023/01/07 04:50:28;;;;;;;1.52;0.75;;;;;;;;;;6245373;23;20000;-70
2023/01/07 04:52:54;;;;;;;1.48;0.75;;;;;;;;;;6245166;23;19996;-70
2023/01/07 04:55:20;;;;;;;3.55;1.08;;;;;;;;;;6244557;23;20011;-70
2023/01/07 04:57:47;;;;;;;1.17;0.90;;;;;;;;;;6244730;23;20427;-70
2023/01/07 05:00:14;;;;;;;0.93;0.82;;;;;;;;;;6254938;23;20011;-70
2023/01/07 05:02:40;;;;;;;2.00;0.85;;;;;;;;;;6254462;23;20004;-70
2023/01/07 05:05:06;;;;;;;1.25;0.90;;;17.10;98.60;;;;;;6244931;23;20011;-70
2023/01/07 05:07:32;;;;;;;1.60;0.70;;;;;;;;;;6244641;23;19992;-70
2023/01/07 05:09:58;;;;;;;1.58;0.80;;;;;;;;;;6245129;23;20010;-70
2023/01/07 05:12:24;;;;;;;2.25;0.95;;;;;;;;;;6244789;23;20083;-70
2023/01/07 05:14:51;;;;;;;1.85;0.75;;;;;;;;;;6245181;23;20324;-70
2023/01/07 05:17:17;;;;;;;2.90;0.93;;;17.10;98.30;;;;;;6245215;23;19992;-70
2023/01/07 05:19:43;;;;;;;1.45;0.90;;;;;;;;;;6245198;23;20000;-70
2023/01/07 05:22:10;;;;;;;1.90;0.93;;;;;;;;;;6245179;23;20007;-70
2023/01/07 05:24:35;;;;;;;0.75;0.47;;;16.90;98.30;;;;;;6244998;23;20015;-70
2023/01/07 05:27:02;;;;;;;0.88;0.70;;;;;;;;;;6244771;23;19996;-70
2023/01/07 05:29:28;;;;;;;1.58;1.02;;;17.10;98.20;;;;;;6244620;23;20004;-70
2023/01/07 05:31:54;;;;;;;1.27;0.77;;;;;;;;;;6245057;23;20000;-70
2023/01/07 05:34:21;;;;;;;1.67;1.10;;;;;;;;;;6244744;23;20007;-70
2023/01/07 05:36:47;;;;;;;1.30;0.90;;;;;;;;;;6245138;23;20007;-70
2023/01/07 05:39:13;;;;;;;4.22;1.30;;;17.00;98.40;;;;;;6245017;23;20049;-70
2023/01/07 05:41:39;;;;;;;3.35;1.20;;;;;;;;;;6244974;23;20008;-70
2023/01/07 05:44:06;;;;;;;3.08;1.05;;;17.00;98.10;;;;;;6244555;23;20009;-70
2023/01/07 05:46:32;;;;;;;0.98;0.80;;;16.80;98.00;;;;;;6244935;23;19997;-70
2023/01/07 05:48:57;;;;;;;1.63;0.75;;;;;;;;;;6247141;23;20003;-70
2023/01/07 05:51:24;;;;;;;1.27;0.88;;;16.90;98.00;;;;;;6246689;23;20420;-70
2023/01/07 05:53:50;;;;;;;1.85;0.75;;;;;;;;;;6247130;23;19996;-70
2023/01/07 05:56:16;;;;;;;1.45;0.82;;;;;;;;;;6247163;23;20406;-70
2023/01/07 05:58:42;;;;;;;1.27;0.95;;;;;;;;;;6256824;23;20004;-70
2023/01/07 06:01:08;;;;;;;1.63;0.90;;;;;;;;;;6256674;23;20004;-70
2023/01/07 06:03:35;;;;;;;1.55;1.10;;;;;;;;;;6256111;23;20012;-70
2023/01/07 06:06:06;;;;;;;2.08;0.90;;;;;;;;;;6246548;23;20011;-70
2023/01/07 06:08:40;;;;;;;0.82;0.70;;;16.90;74.80;;;;;;6246497;23;20326;-69
2023/01/07 06:11:07;;;;;;;0.75;0.75;;;;;;;;;;6246828;23;20366;-69
2023/01/07 06:13:34;;;;;;;1.77;0.80;;;16.90;72.80;;;;;;6253565;23;20031;-68
2023/01/07 06:16:11;;;;;;;2.25;1.05;;;16.80;74.10;;;;;;6246491;23;20455;-68
2023/01/07 06:18:37;;;;;;;1.77;0.82;;;;;;;;;;6246508;23;20075;-68
2023/01/07 06:21:03;;;;;;;2.33;1.00;;;17.00;98.40;;;;;;6246903;23;20031;-68
2023/01/07 06:23:30;;;;;;;1.58;0.90;;;;;;;;;;6246817;23;20004;-68
2023/01/07 06:25:56;;;;;;;0.80;0.70;;;;;;;;;;6246311;23;20008;-68
2023/01/07 06:28:23;;;;;;;0.75;0.75;;;;;;;;;;6246710;23;20054;-69
2023/01/07 06:30:49;;;;;;;1.60;0.70;;;;;;;;;;6246364;23;20122;-69
2023/01/07 06:33:16;;;;;;;1.52;1.00;;;16.80;73.00;;;;;;6246878;23;20000;-68
2023/01/07 06:35:44;;;;;;;2.45;0.57;;;16.80;75.60;;;;;;6246562;23;20000;-69
2023/01/07 06:38:10;;;;;;;3.20;1.00;;;;;;;;;;6246226;23;19993;-69
2023/01/07 06:40:37;;;;;;;3.60;0.63;;;;;;;;;;6246558;23;20046;-69
2023/01/07 06:43:03;;;;;;;1.00;0.80;;;;;;;;;;6246371;23;20051;-69
2023/01/07 06:45:29;;;;;;;2.15;1.00;;;;;;;;;;6245916;23;20019;-69
2023/01/07 06:47:57;;;;;;;5.25;1.08;;;;;;;;;;6246133;23;20007;-69
2023/01/07 06:50:24;;;;;;;1.65;1.00;;;;;;;;;;6246412;23;20012;-69
2023/01/07 06:52:50;;;;;;;1.83;1.00;;;;;;;;;;6246194;23;20001;-69
2023/01/07 06:55:17;;;;;;;2.90;0.90;;;;;;;;;;6246362;23;20004;-69
2023/01/07 06:57:43;;;;;;;2.08;1.52;;;16.90;75.50;;;;;;6256148;23;20063;-69
2023/01/07 07:00:10;;;;;;;2.10;1.60;;;16.90;99.00;;;;;;6246064;23;19996;-69
2023/01/07 07:02:36;;;;;;;4.38;1.83;;;;;;;;;;6245997;23;20070;-69
2023/01/07 07:05:03;;;;;;;5.10;1.90;;;;;;;;;;6246285;23;20016;-69
2023/01/07 07:07:29;;;;;;;2.40;2.20;;;;;;;;;;6246444;23;20352;-69
2023/01/07 07:09:56;;;;;;;2.65;2.45;;;;;;;;;;6246369;23;20011;-69
2023/01/07 07:12:22;;;;;;;3.10;2.30;;;;;;;;;;6246392;23;20424;-69
2023/01/07 07:14:49;;;;;;;3.65;3.35;;;;;;;;;;6245883;23;20035;-69
2023/01/07 07:17:15;;;;;;;2.75;2.55;;;;;;;;;;6246212;23;20008;-69
2023/01/07 07:19:42;;;;;;;3.30;3.10;;;;;;;;;;6246349;23;20079;-69
2023/01/07 07:22:08;;;;;;;3.53;3.30;;;;;;;;;;6245887;23;20435;-69
2023/01/07 07:24:35;;;;;;;3.67;3.40;;;;;;;;;;6245794;23;20028;-69
2023/01/07 07:27:02;;;;;;;3.90;3.60;;;;;;;;;;6246230;23;20368;-69
2023/01/07 07:29:29;;;;;;;4.03;3.72;;;;;;;;;;6246211;23;20004;-69
2023/01/07 07:31:55;;;;;;;3.85;3.40;;;;;;;;;;6245684;23;19996;-69
2023/01/07 07:34:21;;;;;;;3.58;3.38;;;;;;;;;;6246097;23;20063;-69
2023/01/07 07:36:48;;;;;;;3.80;3.50;;;;;;;;;;6245725;23;20046;-69
2023/01/07 07:39:14;;;;;;;3.85;3.55;;;;;;;;;;6245981;23;20067;-69
2023/01/07 07:41:40;;;;;;;3.20;3.00;;;;;;;;;;6246030;23;20020;-69
2023/01/07 07:44:07;;;;;;;3.67;3.40;;;;;;;;;;6245900;23;20012;-69
2023/01/07 07:46:33;;;;;;;3.60;3.30;;;;;;;;;;6245682;23;20007;-69
2023/01/07 07:48:59;;;;;;;3.25;3.05;;;;;;;;;;6245854;23;20005;-69
2023/01/07 07:51:26;;;;;;;3.30;3.00;;;;;;;;;;6245684;23;20045;-69
2023/01/07 07:53:52;;;;;;;3.10;2.80;;;;;;;;;;6245813;23;20099;-69
2023/01/07 07:56:19;;;;;;;2.80;2.30;;;;;;;;;;6245293;23;20004;-69
2023/01/07 07:58:45;;;;;;;2.55;2.35;;;;;;;;;;6245664;23;20001;-69
2023/01/07 08:01:11;;;;;;;2.50;2.30;;;;;;;;;;6255348;23;20046;-69
2023/01/07 08:03:37;;;;;;;2.00;1.90;;;;;;;;;;6245136;23;20020;-69
2023/01/07 08:06:04;;;;;;;1.70;1.60;;;;;;;;;;6245632;23;20004;-69
2023/01/07 08:08:31;;;;;;;1.77;1.67;;;;;;;;;;6245744;23;20001;-70
2023/01/07 08:10:57;;;;;;;1.60;1.50;;;;;;;;;;6245024;23;20139;-70
2023/01/07 08:13:23;;;;;;;1.65;1.40;;;;;;;;;;6255599;23;20024;-71
2023/01/07 08:15:49;;;;;;;1.50;1.40;;;;;;;;;;6255483;23;20099;-69
2023/01/07 08:18:15;;;;;;;1.35;1.25;;;;;;;;;;6255509;23;20008;-69
2023/01/07 08:20:41;;;;;;;1.63;1.38;;;;;;;;;;6255634;23;20000;-70
2023/01/07 08:23:08;;;;;;;1.23;1.20;;;16.90;75.30;;;;;;6255617;23;19996;-77
2023/01/07 08:25:34;;;;;;;1.10;1.00;;;16.90;74.20;;;;;;6255532;23;20004;-81
2023/01/07 08:28:00;;;;;;;1.17;1.00;;;16.80;98.70;;;;;;6255596;23;20301;-78
2023/01/07 08:30:27;;;;;;;1.30;1.17;;;17.00;98.70;;;;;;6245630;23;20414;-77
2023/01/07 08:32:53;;;;;;;1.77;1.08;;;;;;;;;;6255695;23;19997;-79
2023/01/07 08:35:20;;;;;;;6.05;1.20;;;;;;;;;;6255467;23;20007;-77
2023/01/07 08:37:46;;;;;;;1.85;0.70;;;;;;;;;;6255396;23;20054;-78
2023/01/07 08:40:12;;;;;;;1.08;0.80;;;17.10;72.30;;;;;;6245597;23;20004;-77
2023/01/07 08:42:38;;;;;;;2.00;0.90;;;16.90;98.70;;;;;;6255522;23;19996;-78
2023/01/07 08:45:06;;;;;;;1.10;0.80;;;16.80;74.90;;;;;;6255424;23;20339;-80
2023/01/07 08:47:32;;;;;;;0.98;0.60;;;;;;;;;;6245352;23;19992;-79
2023/01/07 08:49:59;;;;;;;0.60;0.60;;;;;;;;;;6245543;23;20016;-79
2023/01/07 08:52:27;;;;;;;2.28;0.90;;;;;;;;;;6245119;23;20003;-76
2023/01/07 08:54:53;;;;;;;3.92;0.80;;;;;;;;;;6245464;23;20004;-77
2023/01/07 08:57:19;;;;;;;1.17;0.70;;;16.90;98.50;;;;;;6245564;23;20073;-83
2023/01/07 08:59:45;;;;;;;1.13;1.02;;;16.90;91.20;;;;;;6255478;23;20465;-83
2023/01/07 09:02:15;;;;;;;0.60;0.60;;;16.80;68.90;;;;;;6255125;23;20317;-79
2023/01/07 09:04:41;;;;;;;0.80;0.68;;;;;;;;;;6254936;23;20079;-79
2023/01/07 09:07:08;;;;;;;2.20;0.77;;;;;;;;;;6255123;23;20495;-78
2023/01/07 09:09:34;;;;;;;1.85;0.68;;;;;;;;;;6245314;23;20077;-76
2023/01/07 09:12:00;;;;;;;1.77;0.90;;;16.80;98.50;;;;;;6246204;23;20335;-76
2023/01/07 09:14:26;;;;;;;1.42;0.50;;;;;;;;;;6255190;23;19996;-74
2023/01/07 09:16:52;;;;;;;1.27;0.45;;;;;;;;;;6255463;23;20330;-76
2023/01/07 09:19:18;;;;;;;1.05;0.60;;;;;;;;;;6255181;23;20030;-76
2023/01/07 09:21:44;;;;;;;1.80;0.60;;;;;;;;;;6218059;23;20075;-78
2023/01/07 09:24:10;;;;;;;1.38;0.60;;;16.90;98.50;;;;;;6254962;23;20004;-75
2023/01/07 09:26:36;;;;;;;0.90;0.50;;;;;;;;;;6245114;23;19996;-75
2023/01/07 09:29:03;;;;;;;0.65;0.65;;;;;;;;;;6244803;23;20004;-74
2023/01/07 09:31:29;;;;;;;1.48;0.80;;;;;;;;;;6245118;23;20008;-75
2023/01/07 09:33:56;;;;;;;1.75;0.88;;;;;;;;;;6218781;23;19996;-71
2023/01/07 09:36:22;;;;;;;1.60;0.60;;;;;;;;;;6245358;23;20332;-73
2023/01/07 09:38:48;;;;;;;6.82;0.68;;;;;;;;;;6255290;23;19996;-75
2023/01/07 09:41:26;;;;;;;3.90;0.60;;;16.90;95.70;;;;;;6255013;23;20000;-73
2023/01/07 09:43:55;;;;;;;1.50;0.77;;;16.90;74.10;;;;;;6254665;23;20053;-72
2023/01/07 09:46:22;;;;;;;1.87;0.67;;;17.00;98.00;;;;;;6258265;23;19996;-74
2023/01/07 09:48:56;;;;;;;0.77;0.50;;;16.80;73.30;;;;;;6257475;23;19996;-76
2023/01/07 09:51:24;;;;;;;1.42;0.77;;;17.00;97.60;;;;;;6255003;23;20039;-75
2023/01/07 09:53:58;;;;;;;3.38;0.75;;;16.80;72.40;;;;;;6255043;23;20007;-76
2023/01/07 09:56:29;;;;;;;1.30;0.75;;;17.00;97.80;;;;;;6255049;23;19999;-77
2023/01/07 09:58:56;;;;;;;0.93;0.70;;;16.90;71.10;;;;;;6254961;23;19996;-79
2023/01/07 10:01:28;;;;;;;1.35;0.80;;;16.80;97.60;;;;;;6254897;23;19996;-77
2023/01/07 10:04:13;;;;;;;1.48;0.77;;;16.60;97.40;;;;;;6224680;23;20015;-79
2023/01/07 10:06:52;;;;;;;4.07;0.70;;;17.00;66.80;;;;;;6224425;23;20004;-79
2023/01/07 10:09:50;;;;;;;1.08;0.68;;;17.00;77.60;;;;;;6214758;23;20075;-80
2023/01/07 10:12:33;;;;;;;4.65;1.00;;;17.00;66.80;;;;;;6214768;23;20071;-78
2023/01/07 10:15:21;;;;;;;2.20;0.88;;;16.90;66.60;;;;;;6214684;23;20011;-76
2023/01/07 10:18:11;;;;;;;1.63;0.85;;;16.60;69.80;;;;;;6224399;23;20364;-76
2023/01/07 10:20:37;;;;;;;0.68;0.60;;;;;;;;;;6224275;23;20455;-77
2023/01/07 10:23:11;;;;;;;2.55;0.90;;;17.00;71.50;;;;;;6224538;23;20010;-75
2023/01/07 10:25:48;;;;;;;1.55;0.73;;;17.10;97.10;;;;;;6214377;23;20008;-76
2023/01/07 10:28:21;;;;;;;1.30;0.70;;;17.00;72.20;;;;;;6214699;23;20020;-76
2023/01/07 10:30:51;;;;;;;2.40;0.88;;;17.10;97.20;;;;;;6214782;23;20017;-76
2023/01/07 10:33:19;;;;;;;;;;;17.00;72.40;;;;;;6215794;23;19993;-75
2023/01/07 10:36:10;;;;;;;0.93;0.60;;;17.20;97.20;;;;;;6216543;23;19900;-77
2023/01/07 10:38:41;;;;;;;1.60;1.00;;;17.00;71.30;;;;;;6200147;23;20008;-76
2023/01/07 10:41:28;;;;;;;2.78;0.70;;;17.10;66.40;;;;;;6216514;23;20028;-79
2023/01/07 10:44:02;;;;;;;1.23;0.65;;;17.20;97.30;;;;;;6216406;23;20063;-78
2023/01/07 10:46:29;;;;;;;3.92;1.02;;;;;;;;;;6216372;23;20394;-78
2023/01/07 10:49:02;;;;;;;7.32;1.00;;;17.20;66.00;;;;;;6216395;23;20012;-76
2023/01/07 10:51:45;;;;;;;8.82;1.25;;;17.20;66.00;;;;;;6216425;23;20014;-77
2023/01/07 10:54:35;;;;;;;3.10;1.00;;;17.30;95.10;;;;;;6225941;23;20007;-75
2023/01/07 10:57:10;;;;;;;9.65;0.73;;;17.40;86.90;;;;;;6225756;23;19993;-75
2023/01/07 10:59:36;;;;;;;7.30;0.88;;;17.40;97.20;;;;;;6215942;23;20494;-78
2023/01/07 11:02:03;;;;;;;1.45;0.82;;;17.20;71.00;;;;;;6222784;23;20451;-75
2023/01/07 11:04:29;;;;;;;5.95;0.90;;;;;;;;;;6256343;23;20008;-76
2023/01/07 11:07:06;;;;;;;6.07;0.95;;;17.30;97.10;;;;;;6219376;23;20451;-75
2023/01/07 11:09:35;;;;;;;2.17;0.50;;;17.40;96.90;;;;;;6256429;23;20000;-75
2023/01/07 11:12:23;;;;;;;0.83;0.70;;;17.30;70.70;;;;;;6256245;23;20003;-74
2023/01/07 11:14:50;;;;;;;1.98;0.90;;;;;;;;;;6256228;23;20242;-74
2023/01/07 11:17:37;;;;;;;1.83;0.57;;;17.30;68.20;;;;;;6246407;23;20000;-75
2023/01/07 11:20:05;;;;;;;2.15;0.75;;;17.60;96.80;;;;;;6246427;23;20023;-75
2023/01/07 11:22:34;;;;;;;1.70;0.82;;;17.50;70.00;;;;;;6245942;23;20054;-75
2023/01/07 11:25:01;;;;;;;5.32;0.60;;;17.70;70.20;;;;;;6256169;23;20085;-74
2023/01/07 11:27:31;;;;;;;1.13;0.80;;;17.70;70.20;;;;;;6256295;23;20430;-73
2023/01/07 11:30:02;;;;;;;3.92;0.65;;;17.70;65.10;;;;;;6256080;23;20000;-76
2023/01/07 11:32:35;;;;;;;4.00;0.70;;;17.90;96.90;;;;;;6256238;23;19992;-79
2023/01/07 11:35:16;;;;;;;2.00;0.90;;;17.80;64.80;;;;;;6256228;23;20004;-79
2023/01/07 11:37:46;;;;;;;1.20;0.47;;;17.60;96.50;;;;;;6256377;23;19996;-79
2023/01/07 11:40:12;;;;;;;6.35;0.93;;;17.90;96.50;;;;;;6246649;23;19996;-77
2023/01/07 11:42:59;;;;;;;0.50;0.50;;;17.80;95.40;;;;;;6254145;23;20052;-77
2023/01/07 11:45:46;;;;;;;1.45;0.60;;;17.60;96.70;;;;;;6255497;23;20012;-72
2023/01/07 11:48:13;;;;;;;1.88;0.50;;;;;;;;;;6245911;23;20071;-72
2023/01/07 11:50:42;;;;;;;0.90;0.50;;;;;;;;;;6245910;23;20010;-70
2023/01/07 11:53:14;;;;;;;2.03;0.60;;;17.60;96.80;;;;;;6245816;23;19996;-72
2023/01/07 11:55:56;;;;;;;0.98;0.40;;;17.60;96.90;;;;;;6245846;23;20422;-71
2023/01/07 11:58:23;;;;;;;0.50;0.50;;;17.60;96.90;;;;;;6245977;23;19996;-73
2023/01/07 12:01:07;;;;;;;2.08;0.88;;;17.60;65.60;;;;;;6246041;23;20000;-72
2023/01/07 12:03:35;;;;;;;1.80;0.60;;;17.60;97.00;;;;;;6245467;23;20016;-72
2023/01/07 12:06:24;;;;;;;3.70;0.40;;;17.50;70.90;;;;;;6245882;23;20458;-72
2023/01/07 12:08:50;;;;;;;;;;;17.60;70.60;;;;;;6245430;23;19997;-72
2023/01/07 12:11:17;;;;;;;0.57;0.50;;;;;;;;;;6246111;23;19982;-70
2023/01/07 12:13:48;;;;;;;0.55;0.40;;;17.60;71.10;;;;;;6245737;23;20004;-70
2023/01/07 12:16:16;;;;;;;0.73;0.38;;;;;;;;;;6245817;23;20066;-72
2023/01/07 12:19:02;;;;;;;0.85;0.55;;;17.60;97.00;;;;;;6245685;23;20008;-71
2023/01/07 12:21:57;;;;;;;1.65;0.60;;;17.60;97.10;;;;;;6255798;23;20000;-71
2023/01/07 12:24:42;;;;;;;0.60;0.40;;;17.60;97.00;;;;;;6245452;23;20650;-75
2023/01/07 12:27:30;;;;;;;0.82;0.50;;;17.50;97.00;;;;;;6245611;23;20008;-75
2023/01/07 12:30:17;;;;;;;0.55;0.47;;;17.50;65.40;;;;;;6245731;23;20106;-78
2023/01/07 12:33:08;;;;;;;0.90;0.45;;;17.50;88.90;;;;;;6245641;23;20019;-76
2023/01/07 12:35:41;;;;;;;1.75;0.40;;;17.50;97.00;;;;;;6245580;23;20062;-74
2023/01/07 12:38:26;;;;;;;2.47;0.52;;;17.60;93.10;;;;;;6245492;23;20420;-74
2023/01/07 12:40:59;;;;;;;0.50;0.45;;;17.50;71.20;;;;;;6245359;23;20070;-74
2023/01/07 12:43:37;;;;;;;0.40;0.40;;;17.60;96.90;;;;;;6245566;23;20003;-73
2023/01/07 12:46:09;;;;;;;0.52;0.30;;;17.60;96.90;;;;;;6245193;23;20011;-70
2023/01/07 12:48:57;;;;;;;1.00;0.52;;;17.50;70.60;;;;;;6245529;23;20050;-71
2023/01/07 12:51:38;;;;;;;0.50;0.40;;;17.50;65.30;;;;;;6245226;23;20008;-72
2023/01/07 12:54:27;;;;;;;2.40;0.52;;;17.50;70.20;;;;;;6245123;23;19996;-71
2023/01/07 12:56:59;;;;;;;1.05;0.75;;;17.50;70.40;;;;;;6244966;23;20458;-71
2023/01/07 12:59:34;;;;;;;0.95;0.70;;;17.50;70.40;;;;;;6245409;23;20016;-71
2023/01/07 13:02:11;;;;;;;2.30;0.70;;;17.60;96.90;;;;;;6245102;23;20012;-71
2023/01/07 13:04:49;;;;;;;0.98;0.60;;;16.80;65.00;;;;;;6245226;23;20016;-71
2023/01/07 13:07:30;;;;;;;0.90;0.70;;;17.50;70.50;;;;;;6245276;23;20001;-71
2023/01/07 13:10:01;;;;;;;1.25;0.60;;;17.50;70.50;;;;;;6245325;23;19996;-71
2023/01/07 13:12:47;;;;;;;0.68;0.50;;;17.70;96.80;;;;;;6244851;23;19996;-70
2023/01/07 13:15:27;;;;;;;0.40;0.40;;;17.20;83.50;;;;;;6245329;23;19993;-71
2023/01/07 13:18:03;;;;;;;2.38;0.60;;;17.60;69.40;;;;;;6245280;23;20004;-70
2023/01/07 13:21:04;;;;;;;1.08;0.65;;;17.70;96.30;;;;;;6245156;23;20058;-71
2023/01/07 13:23:39;;;;;;;1.55;0.60;;;17.70;84.50;;;;;;6224069;23;20335;-70
2023/01/07 13:26:31;;;;;;;2.15;0.40;;;17.50;69.80;;;;;;6245047;23;20008;-72
2023/01/07 13:29:12;;;;;;;0.70;0.52;;;17.30;92.40;;;;;;6244783;23;20004;-70
2023/01/07 13:32:22;;;;;;;0.40;0.40;;;17.30;96.30;;;;;;6245210;23;20012;-70
2023/01/07 13:35:22;;;;;;;2.83;0.60;;;17.50;96.30;;;;;;6245172;23;20054;-71
2023/01/07 13:38:09;;;;;;;1.38;0.52;;;17.60;96.50;;;;;;6245066;23;20000;-71
2023/01/07 13:41:05;;;;;;;0.40;0.40;;;17.60;96.50;;;;;;6245044;23;20004;-70
2023/01/07 13:43:39;;;;;;;1.45;0.30;;;17.50;64.90;;;;;;6244853;23;20335;-70
2023/01/07 13:46:12;;;;;;;0.85;0.60;;;17.50;64.50;;;;;;6254573;23;20004;-71
2023/01/07 13:48:45;;;;;;;1.08;0.70;;;17.40;69.90;;;;;;6244872;23;20312;-72
2023/01/07 13:51:12;;;;;;;2.55;0.73;;;17.30;96.40;;;;;;6245137;23;20388;-70
2023/01/07 13:53:39;;;;;;;2.05;0.50;;;17.30;96.40;;;;;;6244701;23;19992;-71